Time;durP1;ratioP1;P1;durP2;ratioP2;P2;SDS_P1;SDS_P2;PMS_P1;PMS_P2;Temp;Humidity;BMP_temperature;BMP_pressure;BME280_temperature;BME280_humidity;BME280_pressure;Samples;Min_cycle;Max_cycle;Signal;HPM_P1;HPM_P2
2021/09/13 00:01:02;;;;;;;11.70;10.50;;;;;;;17.73;69.18;100784.25;4902074;28;126680;-60
2021/09/13 00:03:28;;;;;;;12.52;11.23;;;;;;;17.66;69.87;100790.91;4901903;28;126297;-59
2021/09/13 00:05:54;;;;;;;11.68;10.43;;;;;;;17.61;70.17;100793.75;4901631;28;127542;-61
2021/09/13 00:08:20;;;;;;;12.00;10.90;;;;;;;17.60;69.88;100791.31;4901926;28;117287;-61
2021/09/13 00:10:46;;;;;;;10.75;9.75;;;;;;;17.56;69.99;100785.69;4901055;28;128104;-60
2021/09/13 00:13:13;;;;;;;10.68;9.63;;;;;;;17.53;70.08;100785.50;4902428;28;98515;-60
2021/09/13 00:15:39;;;;;;;11.52;10.40;;;;;;;17.50;69.57;100789.66;4899870;28;121260;-61
2021/09/13 00:18:05;;;;;;;11.13;10.13;;;;;;;17.44;69.82;100788.13;4901466;28;119460;-61
2021/09/13 00:20:31;;;;;;;11.48;10.32;;;;;;;17.41;69.88;100786.03;4899719;28;125858;-60
2021/09/13 00:22:57;;;;;;;10.75;9.65;;;;;;;17.37;69.89;100794.00;4900408;28;127783;-60
2021/09/13 00:25:23;;;;;;;11.50;10.35;;;;;;;17.34;70.12;100799.25;4900952;28;124760;-61
2021/09/13 00:27:49;;;;;;;10.98;9.32;;;;;;;17.32;70.17;100802.28;4900752;28;118412;-60
2021/09/13 00:30:15;;;;;;;11.68;10.48;;;;;;;17.27;70.15;100799.66;4901080;28;127970;-61
2021/09/13 00:32:41;;;;;;;12.18;10.05;;;;;;;17.26;70.02;100797.25;4899216;28;126845;-60
2021/09/13 00:35:08;;;;;;;11.15;10.00;;;;;;;17.21;69.87;100802.78;4902352;28;97938;-60
2021/09/13 00:37:34;;;;;;;10.88;9.80;;;;;;;17.18;69.91;100801.50;4899861;28;104816;-60
2021/09/13 00:40:00;;;;;;;10.60;9.27;;;;;;;17.16;70.36;100800.97;4901338;28;99978;-61
2021/09/13 00:42:26;;;;;;;11.10;10.05;;;;;;;17.13;69.65;100802.41;4900468;28;126069;-61
2021/09/13 00:44:54;;;;;;;10.18;9.02;;;;;;;17.10;69.91;100799.47;4899302;28;126564;-60
2021/09/13 00:47:20;;;;;;;10.70;9.60;;;;;;;17.06;70.06;100801.19;4901910;28;97819;-61
2021/09/13 00:49:47;;;;;;;10.82;9.73;;;;;;;17.01;70.28;100799.34;4900517;28;127916;-61
2021/09/13 00:52:14;;;;;;;10.63;9.63;;;;;;;16.99;70.08;100798.88;4901661;28;98640;-61
2021/09/13 00:54:40;;;;;;;11.95;9.82;;;;;;;16.97;70.01;100798.34;4901588;28;98252;-61
2021/09/13 00:57:07;;;;;;;10.43;9.43;;;;;;;16.98;70.38;100802.72;4900971;28;105892;-60
2021/09/13 00:59:33;;;;;;;10.80;9.77;;;;;;;16.96;70.25;100798.66;4900744;28;127298;-60
2021/09/13 01:01:59;;;;;;;10.88;9.88;;;;;;;16.97;70.05;100800.25;4899798;28;129101;-59
2021/09/13 01:04:25;;;;;;;9.95;9.05;;;;;;;16.95;70.29;100802.50;4901470;28;123099;-59
2021/09/13 01:06:51;;;;;;;10.50;9.50;;;;;;;16.95;70.26;100797.06;4900987;28;117920;-61
2021/09/13 01:09:17;;;;;;;10.40;9.40;;;;;;;16.93;70.15;100797.34;4900404;28;128503;-59
2021/09/13 01:11:43;;;;;;;10.82;9.73;;;;;;;16.91;70.22;100794.94;4898452;28;128699;-60
2021/09/13 01:14:09;;;;;;;10.38;9.40;;;;;;;16.90;70.97;100804.22;4900482;28;115340;-60
2021/09/13 01:16:35;;;;;;;10.60;9.50;;;;;;;16.89;70.34;100797.13;4900588;28;116976;-61
2021/09/13 01:19:01;;;;;;;10.52;9.52;;;;;;;16.88;70.24;100795.53;4899790;28;127984;-60
2021/09/13 01:21:28;;;;;;;10.07;9.07;;;;;;;16.86;70.47;100789.59;4900495;28;125984;-61
2021/09/13 01:23:54;;;;;;;10.05;9.05;;;;;;;16.84;70.09;100797.25;4899661;28;98021;-61
2021/09/13 01:26:20;;;;;;;10.32;9.32;;;;;;;16.82;70.18;100794.03;4900894;28;116987;-60
2021/09/13 01:28:46;;;;;;;10.85;9.85;;;;;;;16.78;70.12;100793.00;4881858;28;128142;-61
2021/09/13 01:31:12;;;;;;;9.68;8.70;;;;;;;16.75;70.13;100787.34;4882071;28;128112;-62
2021/09/13 01:33:38;;;;;;;10.00;9.02;;;;;;;16.73;70.21;100793.09;4883031;28;98200;-61
2021/09/13 01:36:04;;;;;;;10.60;9.38;;;;;;;16.72;70.37;100783.28;4901115;28;97866;-59
2021/09/13 01:38:31;;;;;;;10.35;9.35;;;;;;;16.69;70.55;100790.13;4900571;28;123073;-61
2021/09/13 01:40:57;;;;;;;10.23;9.23;;;;;;;16.71;70.33;100786.31;4901491;28;98291;-60
2021/09/13 01:43:23;;;;;;;10.43;8.98;;;;;;;16.72;70.72;100788.72;4903008;28;127911;-59
2021/09/13 01:45:50;;;;;;;11.07;9.98;;;;;;;16.71;70.35;100792.56;4933559;28;118101;-61
2021/09/13 01:48:16;;;;;;;9.95;9.05;;;;;;;16.71;70.78;100798.00;4885016;28;128918;-61
2021/09/13 01:50:42;;;;;;;10.15;9.23;;;;;;;16.72;70.35;100798.81;4903408;28;118509;-61
2021/09/13 01:53:08;;;;;;;10.75;9.45;;;;;;;16.69;70.53;100787.41;4903952;28;101997;-60
2021/09/13 01:55:34;;;;;;;10.10;9.10;;;;;;;16.70;70.70;100796.38;4904009;28;118126;-59
2021/09/13 01:58:00;;;;;;;9.77;8.88;;;;;;;16.69;70.67;100790.13;4904453;28;99419;-60
2021/09/13 02:00:26;;;;;;;10.25;9.27;;;;;;;16.72;70.61;100801.53;4903683;28;110302;-60
2021/09/13 02:02:52;;;;;;;9.93;8.95;;;;;;;16.73;70.64;100800.41;4901181;28;117811;-59
2021/09/13 02:05:18;;;;;;;9.93;8.88;;;;;;;16.72;70.40;100802.34;4903535;28;115750;-61
2021/09/13 02:07:44;;;;;;;12.10;9.43;;;;;;;16.72;70.12;100809.69;4903831;28;97919;-60
2021/09/13 02:10:10;;;;;;;9.63;8.70;;;;;;;16.68;70.37;100810.28;4902541;28;128378;-60
2021/09/13 02:12:36;;;;;;;10.15;9.05;;;;;;;16.68;70.17;100812.22;4903175;28;99209;-61
2021/09/13 02:15:03;;;;;;;9.27;8.23;;;;;;;16.67;70.51;100808.69;4903812;28;117671;-60
2021/09/13 02:17:29;;;;;;;9.60;8.70;;;;;;;16.66;70.62;100801.63;4903077;28;117632;-60
2021/09/13 02:19:55;;;;;;;9.43;8.52;;;;;;;16.67;70.78;100802.44;4903229;28;128383;-61
2021/09/13 02:22:21;;;;;;;10.25;9.07;;;;;;;16.66;70.78;100809.78;4902830;28;128358;-61
2021/09/13 02:24:47;;;;;;;9.90;8.93;;;;;;;16.64;70.55;100800.31;4903675;28;117687;-59
2021/09/13 02:27:13;;;;;;;9.45;8.50;;;;;;;16.60;70.80;100808.25;4903132;28;113215;-61
2021/09/13 02:29:39;;;;;;;11.23;9.20;;;;;;;16.60;70.89;100802.81;4902618;28;129380;-61
2021/09/13 02:32:06;;;;;;;10.85;9.52;;;;;;;16.59;70.50;100809.38;4902339;28;127406;-61
2021/09/13 02:34:32;;;;;;;10.32;9.30;;;;;;;16.56;70.67;100801.00;4903822;28;98489;-60
2021/09/13 02:36:58;;;;;;;9.65;8.75;;;;;;;16.54;70.94;100805.91;4903678;28;98203;-60
2021/09/13 02:39:24;;;;;;;9.90;8.75;;;;;;;16.52;71.00;100800.78;4904841;28;98284;-61
2021/09/13 02:41:50;;;;;;;10.95;8.75;;;;;;;16.51;70.57;100804.63;4901769;28;125324;-60
2021/09/13 02:44:17;;;;;;;9.68;8.77;;;;;;;16.51;71.02;100804.63;4903079;28;118913;-60
2021/09/13 02:46:43;;;;;;;9.98;8.48;;;;;;;16.51;70.79;100807.34;4903335;28;98313;-60
2021/09/13 02:49:09;;;;;;;9.90;8.45;;;;;;;16.50;71.13;100808.44;4903083;28;127295;-59
2021/09/13 02:51:35;;;;;;;10.05;9.05;;;;;;;16.51;71.04;100811.97;4901546;28;127174;-60
2021/09/13 02:54:01;;;;;;;10.15;9.15;;;;;;;16.50;70.91;100807.63;4902574;28;119028;-60
2021/09/13 02:56:27;;;;;;;10.07;9.00;;;;;;;16.49;70.69;100804.09;4902009;28;126658;-60
2021/09/13 02:58:53;;;;;;;10.75;9.38;;;;;;;16.48;70.94;100802.50;4902745;28;127702;-60
2021/09/13 03:01:19;;;;;;;10.90;9.20;;;;;;;16.44;70.88;100805.00;4901597;28;128076;-60
2021/09/13 03:03:45;;;;;;;10.85;9.77;;;;;;;16.44;71.29;100807.72;4904036;28;97869;-60
2021/09/13 03:06:11;;;;;;;11.05;9.95;;;;;;;16.44;71.14;100804.19;4901731;28;129247;-59
2021/09/13 03:08:37;;;;;;;10.43;9.48;;;;;;;16.41;71.27;100808.31;4902426;28;128402;-61
2021/09/13 03:11:03;;;;;;;10.55;9.25;;;;;;;16.40;71.62;100809.41;4900058;28;114454;-60
2021/09/13 03:13:30;;;;;;;11.50;10.02;;;;;;;16.41;71.52;100810.22;4903587;28;97904;-60
2021/09/13 03:15:56;;;;;;;10.50;9.48;;;;;;;16.40;71.45;100820.31;4902181;28;99175;-61
2021/09/13 03:18:22;;;;;;;11.20;10.10;;;;;;;16.38;71.40;100816.25;4901737;28;128108;-60
2021/09/13 03:20:48;;;;;;;10.55;9.55;;;;;;;16.40;71.78;100823.03;4901233;28;126462;-61
2021/09/13 03:23:14;;;;;;;10.57;9.48;;;;;;;16.41;71.51;100818.38;4901933;28;118703;-60
2021/09/13 03:25:40;;;;;;;12.70;10.40;;;;;;;16.40;71.51;100825.75;4901433;28;127214;-60
2021/09/13 03:28:06;;;;;;;11.02;10.02;;;;;;;16.42;71.60;100817.28;4902156;28;127658;-60
2021/09/13 03:30:32;;;;;;;11.23;10.07;;;;;;;16.42;71.77;100822.72;4901481;28;128133;-61
2021/09/13 03:32:58;;;;;;;12.15;10.95;;;;;;;16.40;71.78;100814.88;4901510;28;117852;-59
2021/09/13 03:35:24;;;;;;;12.23;10.93;;;;;;;16.41;71.84;100816.47;4903334;28;102660;-63
2021/09/13 03:37:50;;;;;;;11.90;10.57;;;;;;;16.40;71.93;100811.34;4900864;28;128788;-60
2021/09/13 03:40:17;;;;;;;12.02;10.82;;;;;;;16.40;71.97;100812.13;4901920;28;128145;-60
2021/09/13 03:42:43;;;;;;;13.15;11.18;;;;;;;16.38;72.08;100813.53;4902042;28;116272;-60
2021/09/13 03:45:09;;;;;;;14.02;11.18;;;;;;;16.38;71.95;100814.34;4902596;28;105416;-61
2021/09/13 03:47:35;;;;;;;12.20;10.60;;;;;;;16.38;72.69;100808.91;4901130;28;125533;-60
2021/09/13 03:50:01;;;;;;;12.25;11.05;;;;;;;16.40;72.36;100812.13;4901447;28;127911;-61
2021/09/13 03:52:27;;;;;;;12.48;11.18;;;;;;;16.41;72.20;100815.66;4900685;28;98138;-60
2021/09/13 03:54:53;;;;;;;15.75;12.23;;;;;;;16.38;72.03;100816.25;4902023;28;111108;-59
2021/09/13 03:57:19;;;;;;;11.90;10.65;;;;;;;16.36;72.06;100813.84;4900970;28;127115;-61
2021/09/13 03:59:45;;;;;;;13.32;11.95;;;;;;;16.35;72.30;100814.97;4899731;28;127203;-61
2021/09/13 04:02:11;;;;;;;13.75;12.35;;;;;;;16.34;72.13;100817.94;4900648;28;116622;-61
2021/09/13 04:04:38;;;;;;;13.60;11.60;;;;;;;16.31;72.33;100807.66;4901941;28;98357;-61
2021/09/13 04:07:17;;;;;;;12.20;10.75;;;;;;;16.28;72.02;100805.56;4884168;28;98472;-60
2021/09/13 04:10:10;;;;;;;12.52;11.15;;;;;;;16.23;72.35;100806.47;4902338;28;98475;-60
2021/09/13 04:12:36;;;;;;;12.43;10.55;;;;;;;16.18;72.30;100806.50;4902188;28;97641;-60
2021/09/13 04:15:02;;;;;;;11.80;10.38;;;;;;;16.17;72.62;100804.91;4901518;28;121266;-61
2021/09/13 04:17:28;;;;;;;12.85;10.50;;;;;;;16.17;72.51;100813.88;4901492;28;110613;-60
2021/09/13 04:19:55;;;;;;;12.23;10.93;;;;;;;16.16;72.60;100814.97;4901325;28;126074;-61
2021/09/13 04:22:22;;;;;;;11.93;10.07;;;;;;;16.14;72.42;100811.75;4901734;28;107736;-61
2021/09/13 04:24:48;;;;;;;11.63;10.43;;;;;;;16.14;72.26;100808.22;4900484;28;99520;-61
2021/09/13 04:27:14;;;;;;;11.52;10.32;;;;;;;16.12;72.85;100808.53;4900376;28;128544;-59
2021/09/13 04:29:40;;;;;;;13.07;11.20;;;;;;;16.11;72.81;100812.34;4900428;28;128122;-59
2021/09/13 04:32:06;;;;;;;14.10;11.75;;;;;;;16.10;72.50;100809.91;4900111;28;119169;-62
2021/09/13 04:34:33;;;;;;;11.50;10.30;;;;;;;16.09;72.71;100814.53;4900447;28;127317;-59
2021/09/13 04:36:59;;;;;;;11.75;9.85;;;;;;;16.10;72.53;100818.06;4900020;28;98421;-59
2021/09/13 04:39:25;;;;;;;11.30;9.75;;;;;;;16.11;72.75;100822.41;4900270;28;127700;-61
2021/09/13 04:41:51;;;;;;;11.48;10.15;;;;;;;16.11;72.71;100817.78;4900380;28;118067;-60
2021/09/13 04:44:17;;;;;;;11.68;10.48;;;;;;;16.12;72.42;100815.88;4899684;28;128059;-62
2021/09/13 04:46:43;;;;;;;11.35;10.15;;;;;;;16.11;72.83;100817.78;4901419;28;101760;-59
2021/09/13 04:49:09;;;;;;;14.38;10.25;;;;;;;16.14;72.49;100827.25;4900863;28;127399;-62
2021/09/13 04:51:36;;;;;;;11.95;10.75;;;;;;;16.16;72.45;100833.22;4899786;28;118367;-60
2021/09/13 04:54:02;;;;;;;12.43;11.13;;;;;;;16.19;72.59;100832.59;4898759;28;98717;-59
2021/09/13 04:56:28;;;;;;;14.00;11.70;;;;;;;16.17;72.17;100832.91;4897356;28;102423;-60
2021/09/13 04:58:54;;;;;;;13.32;10.85;;;;;;;16.17;72.47;100829.38;4898341;28;98125;-61
2021/09/13 05:01:21;;;;;;;10.85;9.85;;;;;;;16.17;72.41;100843.78;4898600;28;110910;-61
2021/09/13 05:03:48;;;;;;;11.77;10.60;;;;;;;16.17;72.42;100834.81;4897524;28;98860;-59
2021/09/13 05:06:14;;;;;;;12.30;10.57;;;;;;;16.18;72.28;100828.28;4898667;28;98318;-61
2021/09/13 05:08:40;;;;;;;11.70;10.48;;;;;;;16.19;72.16;100835.31;4863331;28;127012;-59
2021/09/13 05:11:06;;;;;;;11.75;10.35;;;;;;;16.21;72.11;100833.13;4864627;28;98082;-61
2021/09/13 05:13:32;;;;;;;12.05;10.77;;;;;;;16.24;72.11;100834.47;4900640;28;126967;-59
2021/09/13 05:15:58;;;;;;;13.70;10.40;;;;;;;16.26;71.95;100824.88;4903005;28;126611;-62
2021/09/13 05:18:24;;;;;;;12.23;10.63;;;;;;;16.31;71.96;100830.25;4901671;28;124189;-61
2021/09/13 05:20:50;;;;;;;12.85;10.57;;;;;;;16.33;72.12;100827.22;4902514;28;117428;-59
2021/09/13 05:23:16;;;;;;;12.05;10.52;;;;;;;16.36;72.03;100832.09;4902063;28;127751;-60
2021/09/13 05:25:42;;;;;;;14.25;11.50;;;;;;;16.39;72.07;100831.50;4902995;28;127712;-61
2021/09/13 05:28:08;;;;;;;13.60;11.45;;;;;;;16.40;72.30;100833.09;4885806;28;118283;-61
2021/09/13 05:30:34;;;;;;;13.70;10.90;;;;;;;16.43;72.18;100838.75;4903141;28;97880;-61
2021/09/13 05:33:00;;;;;;;14.30;11.20;;;;;;;16.47;72.24;100843.59;4904072;28;101544;-62
2021/09/13 05:35:26;;;;;;;13.63;11.48;;;;;;;16.51;72.01;100839.19;4903804;28;127899;-60
2021/09/13 05:37:52;;;;;;;13.40;11.90;;;;;;;16.56;72.10;100842.63;4903184;28;118112;-59
2021/09/13 05:40:18;;;;;;;12.63;10.88;;;;;;;16.58;71.96;100845.03;4904801;28;97835;-59
2021/09/13 05:42:44;;;;;;;13.35;11.00;;;;;;;16.61;71.90;100853.41;4902563;28;127250;-59
2021/09/13 05:45:11;;;;;;;14.02;11.48;;;;;;;16.63;71.86;100851.22;4904085;28;98303;-61
2021/09/13 05:47:37;;;;;;;13.23;11.40;;;;;;;16.71;71.84;100846.19;4902539;28;129005;-59
2021/09/13 05:50:03;;;;;;;13.88;11.13;;;;;;;16.77;71.71;100853.97;4904082;28;118358;-59
2021/09/13 05:52:29;;;;;;;13.93;12.35;;;;;;;16.80;71.69;100861.56;4904116;28;98271;-61
2021/09/13 05:54:55;;;;;;;13.55;12.13;;;;;;;16.81;71.70;100855.00;4903453;28;127041;-60
2021/09/13 05:57:21;;;;;;;14.15;12.40;;;;;;;16.82;71.90;100853.91;4903478;28;126927;-59
2021/09/13 05:59:47;;;;;;;14.77;12.25;;;;;;;16.85;71.69;100861.44;4902930;28;117091;-59
2021/09/13 06:02:14;;;;;;;13.63;11.50;;;;;;;16.89;71.98;100859.75;4916976;28;111678;-61
2021/09/13 06:04:42;;;;;;;13.88;11.52;;;;;;;16.94;71.63;100856.16;4886308;28;99072;-59
2021/09/13 06:07:08;;;;;;;14.45;12.63;;;;;;;17.02;71.66;100865.53;4904492;28;97986;-59
2021/09/13 06:09:34;;;;;;;13.88;12.32;;;;;;;17.08;71.70;100867.03;4902634;28;118819;-61
2021/09/13 06:12:01;;;;;;;15.27;12.63;;;;;;;17.08;71.43;100861.59;4902238;28;127983;-61
2021/09/13 06:14:27;;;;;;;15.52;12.45;;;;;;;17.06;71.74;100855.66;4903622;28;105954;-59
2021/09/13 06:16:53;;;;;;;15.60;13.10;;;;;;;17.07;71.52;100854.53;4903170;28;127666;-59
2021/09/13 06:19:19;;;;;;;15.27;12.93;;;;;;;17.04;71.62;100868.75;4903725;28;117007;-61
2021/09/13 06:21:45;;;;;;;15.10;12.73;;;;;;;17.05;71.84;100862.19;4902778;28;128171;-61
2021/09/13 06:24:11;;;;;;;16.25;12.48;;;;;;;17.08;71.99;100862.41;4902981;28;126861;-59
2021/09/13 06:26:37;;;;;;;17.65;13.13;;;;;;;17.21;72.09;100868.16;4902085;28;126820;-60
2021/09/13 06:29:04;;;;;;;15.35;12.60;;;;;;;17.37;71.60;100872.19;4903485;28;116384;-61
2021/09/13 06:31:30;;;;;;;15.20;12.00;;;;;;;17.51;71.10;100862.09;4933924;28;114257;-61
2021/09/13 06:33:56;;;;;;;16.13;12.27;;;;;;;17.68;70.80;100869.66;4903869;28;98659;-61
2021/09/13 06:36:23;;;;;;;15.27;13.20;;;;;;;17.85;70.08;100867.16;4904068;28;97904;-61
2021/09/13 06:38:49;;;;;;;14.95;12.57;;;;;;;18.08;69.66;100867.19;4902485;28;97801;-59
2021/09/13 06:41:15;;;;;;;13.98;11.73;;;;;;;18.31;69.22;100865.28;4902701;28;98478;-61
2021/09/13 06:43:43;;;;;;;13.68;12.18;;;;;;;18.54;68.91;100861.41;4900715;28;128290;-59
2021/09/13 06:46:24;;;;;;;14.02;12.02;;;;;;;18.75;68.20;100872.69;4901473;28;99944;-61
2021/09/13 06:48:50;;;;;;;15.73;11.85;;;;;;;18.93;67.75;100875.50;4902609;28;97923;-59
2021/09/13 06:51:18;;;;;;;15.00;12.43;;;;;;;19.19;67.10;100881.91;4903294;28;97819;-59
2021/09/13 06:53:44;;;;;;;13.93;12.05;;;;;;;19.43;66.69;100884.25;4901625;28;98363;-61
2021/09/13 06:56:12;;;;;;;15.10;12.10;;;;;;;19.50;66.83;100881.06;4903314;28;98099;-59
2021/09/13 06:58:38;;;;;;;14.10;12.60;;;;;;;19.54;66.70;100884.75;4885879;28;98076;-59
2021/09/13 07:01:04;;;;;;;14.45;12.43;;;;;;;19.50;66.54;100886.53;4900485;28;127060;-59
2021/09/13 07:03:30;;;;;;;15.02;12.48;;;;;;;19.44;67.21;100885.84;4902720;28;126813;-62
2021/09/13 07:05:56;;;;;;;14.30;12.77;;;;;;;19.40;67.20;100884.06;4867800;28;124036;-61
2021/09/13 07:08:22;;;;;;;16.98;13.35;;;;;;;19.37;66.39;100888.22;4901916;28;117631;-61
2021/09/13 07:10:49;;;;;;;15.93;12.77;;;;;;;19.39;67.14;100891.47;4900544;28;113008;-59
2021/09/13 07:13:15;;;;;;;14.27;12.45;;;;;;;19.38;66.81;100892.59;4885036;28;98100;-59
2021/09/13 07:15:41;;;;;;;16.10;13.00;;;;;;;19.40;66.80;100903.19;4902695;28;98135;-59
2021/09/13 07:18:07;;;;;;;14.15;11.90;;;;;;;19.45;67.58;100905.78;4902631;28;118085;-61
2021/09/13 07:20:33;;;;;;;15.30;13.70;;;;;;;19.51;66.29;100896.31;4903020;28;102960;-59
2021/09/13 07:22:59;;;;;;;16.23;12.52;;;;;;;19.67;66.09;100904.91;4901589;28;128978;-59
2021/09/13 07:25:25;;;;;;;15.23;12.90;;;;;;;19.93;64.96;100899.50;4902103;28;118364;-62
2021/09/13 07:27:51;;;;;;;14.07;11.32;;;;;;;20.27;64.68;100890.50;4903183;28;97853;-59
2021/09/13 07:30:17;;;;;;;13.18;11.75;;;;;;;20.59;63.49;100891.97;4902048;28;127716;-60
2021/09/13 07:32:43;;;;;;;13.90;12.45;;;;;;;20.82;62.91;100898.03;4901244;28;123375;-60
2021/09/13 07:35:10;;;;;;;13.07;11.77;;;;;;;20.91;62.63;100896.09;4901965;28;121876;-61
2021/09/13 07:37:37;;;;;;;14.25;11.90;;;;;;;21.06;62.06;100911.19;4901007;28;98171;-61
2021/09/13 07:40:07;;;;;;;13.90;12.50;;;;;;;21.16;62.02;100902.63;4902801;28;110107;-61
2021/09/13 07:42:33;;;;;;;14.30;11.55;;;;;;;21.43;61.32;100903.34;4901742;28;117422;-59
2021/09/13 07:44:59;;;;;;;12.35;11.05;;;;;;;21.75;60.37;100913.66;4901952;28;109556;-60
2021/09/13 07:47:26;;;;;;;12.00;10.63;;;;;;;22.07;59.83;100916.84;4902477;28;98307;-61
2021/09/13 07:49:52;;;;;;;11.23;9.48;;;;;;;22.51;58.83;100906.34;4902253;28;112820;-60
2021/09/13 07:52:18;;;;;;;11.50;10.30;;;;;;;22.67;58.02;100909.25;4901014;28;127208;-61
2021/09/13 07:54:45;;;;;;;13.02;10.38;;;;;;;22.87;57.80;100904.84;4901702;28;126856;-59
2021/09/13 07:57:11;;;;;;;11.45;10.23;;;;;;;23.06;56.95;100909.84;4885106;28;98574;-61
2021/09/13 07:59:37;;;;;;;10.18;9.10;;;;;;;23.32;56.38;100913.09;4902010;28;99053;-60
2021/09/13 08:02:03;;;;;;;9.95;8.95;;;;;;;23.63;56.23;100915.28;4900728;28;115921;-61
2021/09/13 08:04:29;;;;;;;11.60;9.35;;;;;;;23.91;54.88;100923.66;4901227;28;119571;-60
2021/09/13 08:06:56;;;;;;;9.60;8.45;;;;;;;24.16;54.47;100920.84;4902576;28;97955;-61
2021/09/13 08:09:22;;;;;;;10.50;8.82;;;;;;;24.21;53.60;100929.69;4902628;28;98408;-61
2021/09/13 08:11:48;;;;;;;10.52;8.45;;;;;;;24.24;52.94;100922.66;4901637;28;114800;-60
2021/09/13 08:14:15;;;;;;;11.07;8.02;;;;;;;24.68;52.05;100918.06;4901894;28;105783;-61
2021/09/13 08:16:41;;;;;;;9.50;7.03;;;;;;;24.70;52.26;100925.97;4902444;28;101315;-61
2021/09/13 08:19:07;;;;;;;10.20;9.20;;;;;;;24.81;51.83;100931.78;4901838;28;107640;-60
2021/09/13 08:21:34;;;;;;;10.15;9.02;;;;;;;24.84;51.16;100926.34;4901553;28;100904;-60
2021/09/13 08:24:00;;;;;;;9.88;8.27;;;;;;;25.03;50.66;100930.38;4901420;28;98591;-61
2021/09/13 08:26:26;;;;;;;9.52;7.95;;;;;;;25.08;50.79;100932.88;4900733;28;114068;-60
2021/09/13 08:28:52;;;;;;;11.00;8.30;;;;;;;25.20;50.08;100922.59;4899403;28;127091;-60
2021/09/13 08:31:18;;;;;;;8.73;7.80;;;;;;;25.23;49.98;100932.13;4901113;28;127589;-60
2021/09/13 08:33:44;;;;;;;9.73;8.00;;;;;;;25.07;50.33;100936.78;4900935;28;125341;-61
2021/09/13 08:36:10;;;;;;;9.27;7.78;;;;;;;25.00;50.75;100939.38;4902003;28;98024;-61
2021/09/13 08:38:36;;;;;;;11.57;8.45;;;;;;;24.98;50.70;100939.69;4900024;28;100666;-61
2021/09/13 08:41:03;;;;;;;9.73;8.20;;;;;;;25.11;50.37;100941.28;4899568;28;123248;-61
2021/09/13 08:43:29;;;;;;;9.13;7.78;;;;;;;25.37;50.11;100945.47;4902321;28;98637;-61
2021/09/13 08:53:32;;;;;;;8.60;7.25;;;;;;;27.03;46.41;100943.16;4904775;28;97919;-61
2021/09/13 08:55:59;;;;;;;8.15;7.35;;;;;;;27.53;45.41;100950.38;4905135;28;97781;-61
2021/09/13 08:58:25;;;;;;;10.27;7.40;;;;;;;27.99;44.85;100952.28;4904964;28;98941;-61
2021/09/13 09:00:52;;;;;;;10.05;6.90;;;;;;;28.04;44.79;100952.75;4904990;28;98813;-61
2021/09/13 09:03:18;;;;;;;8.50;7.40;;;;;;;27.99;44.68;100946.75;4905177;28;98734;-61
2021/09/13 09:05:48;;;;;;;7.53;6.68;;;;;;;28.48;44.06;100943.03;4905063;28;97836;-60
2021/09/13 09:08:28;;;;;;;7.97;7.18;;;;;;;29.50;42.78;100936.13;4904649;28;98999;-61
2021/09/13 09:10:57;;;;;;;7.00;6.38;;;;;;;29.94;40.83;100938.81;4905329;28;98124;-61
2021/09/13 09:13:23;;;;;;;6.97;6.18;;;;;;;30.25;40.24;100945.75;4904797;28;98489;-61
2021/09/13 09:16:00;;;;;;;5.68;5.15;;;;;;;30.55;40.66;100936.38;4904620;28;97928;-61
2021/09/13 09:18:47;;;;;;;6.65;5.93;;;;;;;30.86;40.34;100946.00;4904489;28;98421;-60
2021/09/13 09:21:30;;;;;;;6.43;4.70;;;;;;;31.04;40.57;100943.25;4904034;28;98479;-62
2021/09/13 09:24:04;;;;;;;6.85;4.40;;;;;;;30.58;40.23;100941.16;4888456;28;97827;-61
2021/09/13 09:26:31;;;;;;;6.35;4.00;;;;;;;29.98;39.83;100942.41;4902660;28;98126;-62
2021/09/13 09:28:58;;;;;;;5.28;4.13;;;;;;;29.38;40.59;100934.44;4904417;28;108209;-61
2021/09/13 09:31:44;;;;;;;5.72;3.97;;;;;;;28.96;41.59;100943.16;4935376;28;98591;-60
2021/09/13 09:34:17;;;;;;;5.60;4.22;;;;;;;28.72;41.52;100938.94;4903945;28;98530;-62
2021/09/13 09:37:03;;;;;;;6.22;4.82;;;;;;;28.46;42.33;100942.63;4904439;28;98033;-62
2021/09/13 09:39:49;;;;;;;7.57;5.00;;;;;;;27.85;43.22;100937.03;4904658;28;98429;-61
2021/09/13 09:42:35;;;;;;;6.47;4.70;;;;;;;27.00;44.84;100933.63;4904232;28;98049;-61
2021/09/13 09:45:25;;;;;;;7.35;4.25;;;;;;;26.41;45.26;100938.41;4904170;28;98686;-60
2021/09/13 09:48:10;;;;;;;5.47;3.78;;;;;;;27.19;44.26;100934.75;4904122;28;99429;-62
2021/09/13 09:50:37;;;;;;;4.40;4.00;;;;;;;26.85;44.74;100932.56;4904019;28;98001;-61
2021/09/13 09:53:19;;;;;;;5.20;4.28;;;;;;;26.78;45.21;100935.19;4902878;28;114756;-61
2021/09/13 09:55:54;;;;;;;6.25;4.15;;;;;;;26.60;45.62;100932.06;4904326;28;97911;-61
2021/09/13 09:58:20;;;;;;;5.25;4.35;;;;;;;26.36;46.03;100938.66;4903193;28;98005;-61
2021/09/13 10:00:47;;;;;;;4.47;4.07;;;;;;;26.03;46.64;100935.59;4902122;28;128972;-61
2021/09/13 10:03:30;;;;;;;6.30;4.22;;;;;;;25.68;47.22;100936.34;4903731;28;98787;-60
2021/09/13 10:05:56;;;;;;;4.80;3.75;;;;;;;25.45;46.84;100930.69;4903856;28;98029;-62
2021/09/13 10:08:23;;;;;;;5.30;3.40;;;;;;;25.25;47.23;100929.78;4885524;28;98001;-61
2021/09/13 10:10:49;;;;;;;5.82;3.70;;;;;;;25.07;46.89;100934.00;4902015;28;98466;-61
2021/09/13 10:13:15;;;;;;;4.15;3.42;;;;;;;25.96;46.00;100936.22;4900876;28;127346;-61
2021/09/13 10:15:41;;;;;;;4.22;3.45;;;;;;;28.49;41.40;100928.81;4903685;28;127356;-60
2021/09/13 10:18:07;;;;;;;4.07;3.45;;;;;;;29.70;39.05;100936.69;4903725;28;100670;-61
2021/09/13 10:20:34;;;;;;;4.88;3.03;;;;;;;30.62;38.20;100938.38;4901107;28;115079;-61
2021/09/13 10:23:00;;;;;;;4.18;3.50;;;;;;;31.73;35.60;100944.84;4901105;28;119031;-61
2021/09/13 10:25:30;;;;;;;5.47;3.50;;;;;;;32.79;35.60;100942.09;4918361;28;98558;-62
2021/09/13 10:28:05;;;;;;;4.88;3.15;;;;;;;33.71;34.30;100933.00;4903948;28;98187;-61
2021/09/13 10:30:34;;;;;;;4.50;3.15;;;;;;;33.71;32.83;100935.81;4903470;28;98404;-62
2021/09/13 10:33:11;;;;;;;3.40;3.10;;;;;;;31.69;37.01;100930.94;4903232;28;98984;-61
2021/09/13 10:35:57;;;;;;;5.43;3.25;;;;;;;30.44;37.85;100918.84;4903675;28;98147;-62
2021/09/13 10:38:46;;;;;;;4.85;3.13;;;;;;;29.44;39.69;100924.59;4904116;28;98010;-61
2021/09/13 10:41:32;;;;;;;4.95;3.20;;;;;;;28.62;40.01;100923.81;4902579;28;102500;-60
2021/09/13 10:44:06;;;;;;;4.65;3.38;;;;;;;27.75;41.30;100925.81;4883204;28;99105;-61
2021/09/13 10:47:02;;;;;;;4.18;3.40;;;;;;;27.09;42.78;100931.41;4883654;28;97963;-61
2021/09/13 10:49:28;;;;;;;4.20;3.70;;;;;;;26.66;43.69;100922.34;4890580;28;98018;-61
2021/09/13 10:52:32;;;;;;;6.60;3.80;;;;;;;26.30;44.01;100929.09;4901828;28;128110;-61
2021/09/13 10:55:17;;;;;;;5.65;3.88;;;;;;;25.99;44.75;100921.72;4903655;28;106874;-61
2021/09/13 10:58:08;;;;;;;4.30;3.63;;;;;;;25.78;45.01;100923.97;4903274;28;98312;-61
2021/09/13 11:00:42;;;;;;;5.55;3.78;;;;;;;26.63;44.02;100925.03;4903962;28;98045;-61
2021/09/13 11:03:33;;;;;;;4.72;3.63;;;;;;;28.48;41.09;100932.75;4902284;28;98010;-62
2021/09/13 11:06:08;;;;;;;4.95;3.53;;;;;;;29.28;39.55;100924.88;4903392;28;98068;-61
2021/09/13 11:08:43;;;;;;;3.90;3.50;;;;;;;28.38;41.03;100930.66;4902761;28;97981;-62
2021/09/13 11:11:13;;;;;;;4.22;3.75;;;;;;;27.61;41.35;100929.13;4903316;28;98009;-62
2021/09/13 11:13:40;;;;;;;4.25;3.33;;;;;;;27.03;42.78;100930.13;4902332;28;111008;-61
2021/09/13 11:16:07;;;;;;;4.95;3.33;;;;;;;26.63;43.55;100936.09;4902538;28;116297;-61
2021/09/13 11:18:36;;;;;;;4.60;3.33;;;;;;;26.23;44.04;100920.66;4902762;28;98208;-61
2021/09/13 11:21:24;;;;;;;5.40;3.50;;;;;;;26.05;44.45;100924.97;4901439;28;98265;-61
2021/09/13 11:24:04;;;;;;;3.85;3.25;;;;;;;26.80;43.39;100926.53;4903382;28;98681;-62